Accueil
METAR-TAF:

METAR-TAF

Aéroports :

Monticello Municipal Airport/Ellis Field

Monticello, Arkansas, États-Unis

latitude: 33-38-18N, longitude: 091-45-04W, altitude: 82 m

Observation

Le bulletin a été fait il y a 34 minutes, à 12:53 UTC
Vent calme
Température 26°C
Humidité 79%
Pression 1022 hPa
Visibilité: 16.1 km
Ciel clair

METAR: KLLQ 131253Z AUTO 00000KT 10SM CLR 26/22 A3018 RMK AO2 SLP217 T02610222

Heure: 08:27 (13:27 UTC)

Prévision

Le bulletin a été fait il y a 2 heures et 7 minutes, à 11:20 UTC
Prévision valable du 13 à 12 UTC au 14 à 12 UTC
Vent 3 kt de direction variable
Visibilité: 10 km
Quelques nuages à une hauteur de 25000 ft
A partir de 13 à 1500 UTC
Vent 5 kt de sud/sud-ouest
Visibilité: 10 km
Quelques nuages à une hauteur de 5000 ft
Nuages épars à une hauteur de 25000 ft

TAF: KLLQ 131120Z 1312/1412 VRB03KT P6SM FEW250 FM131500 20005KT P6SM FEW050 SCT250

Observations et prévisions météorologiques de plus de 4000 aéroports (messages METAR et TAF).

Les stations disponibles sont représentées par des disques jaunes et rouges sur la carte.

Passer la souris dessus pour voir le nom de la station.

Cliquer dessus pour voir les observations et prévisions météorologiques.

Pour changer de carte: cliquez sur les boutons verts avec une croix noire pour zoomer, sur le bouton vert avec un tiret pour effectuer un zoom arrière, ou sur les flèches vertes pour les cartes adjacentes.


METAR-TAF: